createdAt,value
2018-12-12T04:01:06.578Z,99.99
2018-12-12T04:02:06.468Z,99.99
2018-12-12T04:03:06.629Z,99.99
2018-12-12T04:04:06.766Z,99.99
2018-12-12T04:05:06.879Z,99.99
2018-12-12T04:06:07.127Z,99.99
2018-12-12T04:07:07.290Z,99.99
2018-12-12T04:08:07.425Z,99.99
2018-12-12T04:09:07.619Z,99.99
2018-12-12T04:10:07.768Z,99.99
2018-12-12T04:11:07.926Z,99.99
2018-12-12T04:12:08.013Z,99.99
2018-12-12T04:13:08.193Z,99.99
2018-12-12T04:14:08.308Z,99.99
2018-12-12T04:15:08.509Z,99.99
2018-12-12T04:16:08.647Z,99.99
2018-12-12T04:17:08.853Z,99.99
2018-12-12T04:18:09.003Z,99.99
2018-12-12T04:19:09.166Z,99.99
2018-12-12T04:20:09.256Z,99.99
2018-12-12T04:21:09.550Z,99.99
2018-12-12T04:22:09.668Z,99.99
2018-12-12T04:23:09.826Z,99.99
2018-12-12T04:24:09.978Z,99.99
2018-12-12T04:25:10.144Z,99.99
2018-12-12T04:26:10.329Z,99.99
2018-12-12T04:27:10.413Z,99.99
2018-12-12T04:28:10.577Z,99.99
2018-12-12T04:29:10.746Z,99.99
2018-12-12T04:30:10.962Z,99.99
2018-12-12T04:31:11.092Z,99.99
2018-12-12T04:32:11.211Z,99.99
2018-12-12T04:33:11.369Z,99.99
2018-12-12T04:34:11.523Z,99.99
2018-12-12T04:35:11.687Z,99.99
2018-12-12T04:36:11.805Z,99.99
2018-12-12T04:37:12.008Z,99.99
2018-12-12T04:38:12.115Z,99.99
2018-12-12T04:39:12.343Z,99.99
2018-12-12T04:40:12.460Z,99.99
2018-12-12T04:41:12.699Z,99.99
2018-12-12T04:42:12.844Z,99.99
2018-12-12T04:43:12.979Z,99.99
2018-12-12T04:44:13.166Z,99.99
2018-12-12T04:45:13.315Z,99.99
2018-12-12T04:46:13.426Z,99.99
2018-12-12T04:47:13.670Z,99.99
2018-12-12T04:48:13.858Z,99.99
2018-12-12T04:49:13.954Z,99.99
2018-12-12T04:50:14.082Z,99.99
2018-12-12T04:51:14.297Z,99.99
2018-12-12T04:52:14.429Z,99.99
2018-12-12T04:53:14.584Z,99.99
2018-12-12T04:54:14.801Z,99.99
2018-12-12T04:55:14.909Z,99.99
2018-12-12T04:56:15.059Z,99.99
2018-12-12T04:57:15.205Z,99.99
2018-12-12T04:58:15.363Z,99.99
2018-12-12T04:59:15.593Z,99.99
2018-12-12T05:00:15.849Z,99.99
2018-12-12T05:01:16.020Z,99.99
2018-12-12T05:02:16.133Z,99.99
2018-12-12T05:03:16.300Z,99.99
2018-12-12T05:04:16.365Z,99.99
2018-12-12T05:05:16.612Z,99.99
2018-12-12T05:06:16.832Z,99.99
2018-12-12T05:07:16.861Z,99.99
2018-12-12T05:08:17.066Z,99.99
2018-12-12T05:09:17.224Z,99.99
2018-12-12T05:10:17.328Z,99.99
2018-12-12T05:11:17.583Z,99.99
2018-12-12T05:12:17.747Z,99.99
2018-12-12T05:13:17.788Z,99.99
2018-12-12T05:14:17.971Z,99.99
2018-12-12T05:15:18.203Z,99.99
2018-12-12T05:16:18.327Z,99.99
2018-12-12T05:17:18.503Z,99.99
2018-12-12T05:18:18.616Z,99.99
2018-12-12T05:19:18.804Z,99.99
2018-12-12T05:20:18.920Z,99.99
2018-12-12T05:21:19.129Z,99.99
2018-12-12T05:22:19.285Z,99.99
2018-12-12T05:23:19.434Z,99.99
2018-12-12T05:24:19.590Z,99.99
2018-12-12T05:25:19.753Z,99.99
2018-12-12T05:26:19.868Z,99.99
2018-12-12T05:27:20.017Z,99.99
2018-12-12T05:28:20.160Z,99.99
2018-12-12T05:29:20.364Z,99.99
2018-12-12T05:30:20.557Z,99.99
2018-12-12T05:31:20.663Z,99.99
2018-12-12T05:32:20.872Z,99.99
2018-12-12T05:33:20.933Z,99.99
2018-12-12T05:34:21.140Z,99.99
2018-12-12T05:35:21.301Z,99.99
2018-12-12T05:36:21.488Z,99.99
2018-12-12T05:37:21.620Z,99.99
2018-12-12T05:38:21.762Z,99.99
2018-12-12T05:39:21.956Z,99.99
2018-12-12T05:40:22.094Z,99.99
2018-12-12T05:41:22.217Z,99.99
2018-12-12T05:42:22.419Z,99.99
2018-12-12T05:43:22.530Z,99.99
2018-12-12T05:44:23.195Z,99.99
2018-12-12T05:45:22.919Z,99.99
2018-12-12T05:46:23.033Z,99.99
2018-12-12T05:47:23.151Z,99.99
2018-12-12T05:48:23.263Z,99.99
2018-12-12T05:49:23.503Z,99.99
2018-12-12T05:50:23.708Z,99.99
2018-12-12T05:51:23.853Z,99.99
2018-12-12T05:52:24.029Z,99.99
2018-12-12T05:53:24.148Z,99.99
2018-12-12T05:54:24.333Z,99.99
2018-12-12T05:55:24.477Z,99.99
2018-12-12T05:56:24.612Z,99.99
2018-12-12T05:57:24.733Z,99.99
2018-12-12T05:58:24.957Z,99.99
2018-12-12T05:59:25.040Z,99.99
2018-12-12T06:00:25.214Z,99.99
2018-12-12T06:01:25.486Z,99.99
2018-12-12T06:02:25.508Z,99.99
2018-12-12T06:03:25.758Z,99.99
2018-12-12T06:04:25.852Z,99.99
2018-12-12T06:05:26.019Z,99.99
2018-12-12T06:06:26.241Z,99.99
2018-12-12T06:07:26.426Z,99.99
2018-12-12T06:08:26.577Z,99.99
2018-12-12T06:09:26.717Z,99.99
2018-12-12T06:10:26.872Z,99.99
2018-12-12T06:11:27.103Z,99.99
2018-12-12T06:12:27.226Z,99.99
2018-12-12T06:13:27.390Z,99.99
2018-12-12T06:14:27.627Z,99.99
2018-12-12T06:15:27.715Z,99.99
2018-12-12T06:16:27.794Z,99.99
2018-12-12T06:17:28.045Z,99.99
2018-12-12T06:18:28.117Z,99.99
2018-12-12T06:19:28.285Z,99.99
2018-12-12T06:20:28.483Z,99.99
2018-12-12T06:21:28.670Z,99.99
2018-12-12T06:22:28.844Z,99.99
2018-12-12T06:23:29.005Z,99.99
2018-12-12T06:24:29.147Z,99.99
2018-12-12T06:25:29.271Z,99.99
2018-12-12T06:26:29.378Z,99.99
2018-12-12T06:27:29.583Z,99.99
2018-12-12T06:28:29.811Z,99.99
2018-12-12T06:29:29.981Z,99.99
2018-12-12T06:30:30.040Z,99.99
2018-12-12T06:31:30.289Z,99.99
2018-12-12T06:32:30.439Z,99.99
2018-12-12T06:33:30.578Z,99.99
2018-12-12T06:34:30.716Z,99.99
2018-12-12T06:35:31.554Z,99.99
2018-12-12T06:36:31.040Z,99.99
2018-12-12T06:37:31.171Z,99.99
2018-12-12T06:38:31.330Z,99.99
2018-12-12T06:39:31.479Z,99.99
2018-12-12T06:40:31.645Z,99.99
2018-12-12T06:41:31.744Z,99.99
2018-12-12T06:42:31.916Z,99.99
2018-12-12T06:43:32.160Z,99.99
2018-12-12T06:44:32.222Z,99.99
2018-12-12T06:45:32.460Z,99.99
2018-12-12T06:46:32.639Z,99.99
2018-12-12T06:47:32.817Z,99.99
2018-12-12T06:48:32.942Z,99.99
2018-12-12T06:49:33.077Z,99.99
2018-12-12T06:50:33.173Z,99.99
2018-12-12T06:51:33.408Z,99.99
2018-12-12T06:52:33.588Z,99.99
2018-12-12T06:53:33.721Z,99.99
2018-12-12T06:54:33.938Z,99.99
2018-12-12T06:55:34.096Z,99.99
2018-12-12T06:56:34.213Z,99.99
2018-12-12T06:57:34.394Z,99.99
2018-12-12T06:58:34.487Z,99.99
2018-12-12T06:59:34.790Z,99.99
2018-12-12T07:00:34.873Z,99.99
2018-12-12T07:01:35.057Z,99.99
2018-12-12T07:02:35.180Z,99.99
2018-12-12T07:03:35.328Z,99.99
2018-12-12T07:04:35.443Z,99.99
2018-12-12T07:05:35.600Z,99.99
2018-12-12T07:06:35.839Z,99.99
2018-12-12T07:07:35.904Z,99.99
2018-12-12T07:08:36.077Z,99.99
2018-12-12T07:09:36.271Z,99.99
2018-12-12T07:10:36.418Z,99.99
2018-12-12T07:11:36.665Z,99.99
2018-12-12T07:12:36.859Z,99.99
2018-12-12T07:13:37.147Z,99.99
2018-12-12T07:14:37.048Z,99.99
2018-12-12T07:15:37.228Z,99.99
2018-12-12T07:16:37.302Z,99.99
2018-12-12T07:17:37.556Z,99.99
2018-12-12T07:18:37.697Z,99.99
2018-12-12T07:19:37.856Z,99.99
2018-12-12T07:20:38.044Z,99.99
2018-12-12T07:21:38.168Z,99.99
2018-12-12T07:22:38.430Z,99.99
2018-12-12T07:23:38.667Z,99.99
2018-12-12T07:24:38.790Z,99.99
2018-12-12T07:25:39.109Z,99.99
2018-12-12T07:26:39.204Z,99.99
2018-12-12T07:27:39.621Z,99.99
2018-12-12T07:28:39.378Z,99.99
2018-12-12T07:29:39.506Z,99.99
2018-12-12T07:30:39.755Z,99.99
2018-12-12T07:31:40.124Z,99.99
2018-12-12T07:32:40.642Z,99.99
2018-12-12T07:33:40.637Z,99.99
2018-12-12T07:34:40.663Z,99.99
2018-12-12T07:35:40.845Z,99.99
2018-12-12T07:36:41.036Z,99.99
2018-12-12T07:37:41.243Z,99.99
2018-12-12T07:38:41.196Z,99.99
2018-12-12T07:39:41.445Z,99.99
2018-12-12T07:40:41.463Z,99.99
2018-12-12T07:41:41.735Z,99.99
2018-12-12T07:42:41.866Z,99.99
2018-12-12T07:43:42.055Z,99.99
2018-12-12T07:44:42.216Z,99.99
2018-12-12T07:45:42.268Z,99.99
2018-12-12T07:46:42.821Z,99.99
2018-12-12T07:47:42.605Z,99.99
2018-12-12T07:48:43.369Z,99.99
2018-12-12T07:49:43.111Z,99.99
2018-12-12T07:50:44.070Z,99.99
2018-12-12T07:51:43.530Z,99.99
2018-12-12T07:52:43.695Z,99.99
2018-12-12T07:53:43.770Z,99.99
2018-12-12T07:54:44.024Z,99.99
2018-12-12T07:55:44.359Z,99.99
2018-12-12T07:56:44.402Z,99.99
2018-12-12T07:57:44.478Z,99.99
2018-12-12T07:58:44.766Z,99.99
2018-12-12T07:59:44.637Z,99.99
2018-12-12T08:00:44.946Z,99.99
2018-12-12T08:01:45.194Z,99.99
2018-12-12T08:02:45.251Z,99.99
2018-12-12T08:03:45.541Z,99.99
2018-12-12T08:04:45.610Z,99.99
2018-12-12T08:05:45.941Z,99.99
2018-12-12T08:06:45.848Z,99.99
2018-12-12T08:07:46.091Z,99.99
2018-12-12T08:08:46.619Z,99.99
2018-12-12T08:09:46.506Z,99.99
2018-12-12T08:10:46.619Z,99.99
2018-12-12T08:11:46.868Z,99.99
2018-12-12T08:12:47.040Z,99.99
2018-12-12T08:13:47.263Z,99.99
2018-12-12T08:14:47.351Z,99.99
2018-12-12T08:15:47.876Z,99.99
2018-12-12T08:16:47.741Z,99.99
2018-12-12T08:17:48.231Z,99.99
2018-12-12T08:18:48.210Z,99.99
2018-12-12T08:19:48.164Z,99.99
2018-12-12T08:20:48.315Z,99.99
2018-12-12T08:21:48.654Z,99.99
2018-12-12T08:22:48.586Z,99.99
2018-12-12T08:23:49.008Z,99.99
2018-12-12T08:24:49.082Z,99.99
2018-12-12T08:25:49.261Z,99.99
2018-12-12T08:26:49.317Z,99.99
2018-12-12T08:27:49.642Z,99.99
2018-12-12T08:28:49.814Z,99.99
2018-12-12T08:29:49.946Z,99.99
2018-12-12T08:30:50.195Z,99.99
2018-12-12T08:31:50.367Z,99.99
2018-12-12T08:32:50.596Z,99.99
2018-12-12T08:33:50.675Z,99.99
2018-12-12T08:34:50.889Z,99.99
2018-12-12T08:35:51.047Z,99.99
2018-12-12T08:36:51.298Z,99.99
2018-12-12T08:37:51.275Z,99.99
2018-12-12T08:38:51.473Z,99.99
2018-12-12T08:39:51.768Z,99.99
2018-12-12T08:40:51.860Z,99.99
2018-12-12T08:41:52.221Z,99.99
2018-12-12T08:42:52.118Z,99.99
2018-12-12T08:43:52.132Z,99.99
2018-12-12T08:44:52.564Z,99.99
2018-12-12T08:45:52.549Z,99.99
2018-12-12T08:46:52.702Z,99.99
2018-12-12T08:47:53.093Z,99.99
2018-12-12T08:48:53.219Z,99.99
2018-12-12T08:49:53.277Z,99.99
2018-12-12T08:50:53.468Z,99.99
2018-12-12T08:51:53.570Z,99.99
2018-12-12T08:52:53.886Z,99.99
2018-12-12T08:53:53.915Z,99.99
2018-12-12T08:54:54.124Z,99.99
2018-12-12T08:55:54.381Z,99.99
2018-12-12T08:56:54.451Z,99.99
2018-12-12T08:57:54.701Z,99.99
2018-12-12T08:58:54.803Z,99.99
2018-12-12T08:59:54.967Z,99.99
2018-12-12T09:00:55.084Z,99.99
2018-12-12T09:01:55.284Z,99.99
2018-12-12T09:02:55.499Z,99.99
2018-12-12T09:03:55.584Z,99.99
2018-12-12T09:04:55.806Z,99.99
2018-12-12T09:05:56.058Z,99.99
2018-12-12T09:06:56.085Z,99.99
2018-12-12T09:07:56.178Z,99.99
2018-12-12T09:08:56.385Z,99.96
2018-12-12T09:09:56.563Z,99.99
2018-12-12T09:10:56.764Z,99.99
2018-12-12T09:11:56.980Z,99.99
2018-12-12T09:12:57.020Z,99.99
2018-12-12T09:13:57.354Z,99.99
2018-12-12T09:14:58.146Z,99.87
2018-12-12T09:15:57.584Z,99.99
2018-12-12T09:16:57.815Z,99.99
2018-12-12T09:17:57.984Z,99.99
2018-12-12T09:18:58.115Z,99.99
2018-12-12T09:19:58.194Z,99.87
2018-12-12T09:20:58.495Z,99.77
2018-12-12T09:21:58.656Z,99.30
2018-12-12T09:22:59.510Z,99.20
2018-12-12T09:23:58.926Z,99.30
2018-12-12T09:24:59.064Z,98.82
2018-12-12T09:25:59.311Z,98.35
2018-12-12T09:26:59.457Z,99.11
2018-12-12T09:27:59.654Z,99.68
2018-12-12T09:28:59.758Z,99.30
2018-12-12T09:29:59.932Z,99.20
2018-12-12T09:31:00.124Z,99.30
2018-12-12T09:32:00.241Z,99.96
2018-12-12T09:33:00.410Z,99.96
2018-12-12T09:34:00.696Z,99.20
2018-12-12T09:35:00.871Z,99.20
2018-12-12T09:36:00.869Z,99.30
2018-12-12T09:37:01.093Z,98.73
2018-12-12T09:38:01.210Z,98.35
2018-12-12T09:39:01.391Z,98.35
2018-12-12T09:40:01.590Z,98.82
2018-12-12T09:41:01.868Z,98.16
2018-12-12T09:42:01.956Z,97.97
2018-12-12T09:43:02.075Z,98.35
2018-12-12T09:44:09.036Z,98.07
2018-12-12T09:45:02.424Z,98.35
2018-12-12T09:46:02.526Z,97.88
2018-12-12T09:47:02.953Z,98.07
2018-12-12T09:48:02.925Z,98.44
2018-12-12T09:49:03.231Z,97.97
2018-12-12T09:50:03.346Z,98.25
2018-12-12T09:51:07.384Z,98.16
2018-12-12T09:52:03.751Z,98.35
2018-12-12T09:53:03.803Z,98.92
2018-12-12T09:54:03.959Z,98.73
2018-12-12T09:55:04.123Z,98.82
2018-12-12T09:56:04.357Z,99.11
2018-12-12T09:57:04.498Z,99.39
2018-12-12T09:58:04.614Z,98.73
2018-12-12T09:59:04.824Z,98.44
2018-12-12T10:00:04.983Z,99.39
2018-12-12T10:01:06.335Z,98.44
2018-12-12T10:02:05.319Z,98.82
2018-12-12T10:03:06.713Z,98.82
2018-12-12T10:04:05.485Z,98.35
2018-12-12T10:05:05.680Z,97.97
2018-12-12T10:06:05.871Z,98.30
2018-12-12T10:07:06.019Z,97.17
2018-12-12T10:08:06.187Z,98.40
2018-12-12T10:09:06.315Z,97.83
2018-12-12T10:10:06.540Z,96.31
2018-12-12T10:11:06.716Z,96.08
2018-12-12T10:12:06.850Z,95.70
2018-12-12T10:13:07.009Z,95.22
2018-12-12T10:14:07.202Z,94.74
2018-12-12T10:15:07.455Z,95.51
2018-12-12T10:16:07.438Z,95.31
2018-12-12T10:17:07.571Z,94.65
2018-12-12T10:18:07.813Z,94.74
2018-12-12T10:19:07.969Z,94.51
2018-12-12T10:20:08.139Z,94.79
2018-12-12T10:21:08.883Z,95.51
2018-12-12T10:22:08.554Z,94.51
2018-12-12T10:23:08.799Z,93.37
2018-12-12T10:24:08.903Z,93.18
2018-12-12T10:25:09.140Z,92.56
2018-12-12T10:26:09.202Z,92.47
2018-12-12T10:27:09.416Z,92.94
2018-12-12T10:28:09.536Z,93.04
2018-12-12T10:29:09.741Z,93.60
2018-12-12T10:30:09.879Z,94.13
2018-12-12T10:31:10.004Z,94.27
2018-12-12T10:32:10.231Z,94.70
2018-12-12T10:33:10.346Z,93.89
2018-12-12T10:34:10.505Z,94.37
2018-12-12T10:35:10.605Z,95.12
2018-12-12T10:36:10.724Z,93.60
2018-12-12T10:37:11.043Z,92.94
2018-12-12T10:38:11.185Z,92.75
2018-12-12T10:39:11.385Z,93.04
2018-12-12T10:40:11.542Z,93.60
2018-12-12T10:41:11.634Z,94.27
2018-12-12T10:42:11.822Z,93.41
2018-12-12T10:43:11.948Z,93.60
2018-12-12T10:44:12.147Z,93.51
2018-12-12T10:45:12.308Z,94.46
2018-12-12T10:46:12.564Z,94.84
2018-12-12T10:47:12.735Z,94.56
2018-12-12T10:48:12.833Z,95.22
2018-12-12T10:49:13.041Z,94.56
2018-12-12T10:50:13.217Z,94.56
2018-12-12T10:51:13.410Z,95.70
2018-12-12T10:52:13.651Z,95.60
2018-12-12T10:53:13.825Z,95.41
2018-12-12T10:54:13.771Z,95.79
2018-12-12T10:55:13.913Z,95.70
2018-12-12T10:56:14.133Z,95.12
2018-12-12T10:57:14.289Z,94.18
2018-12-12T10:58:14.419Z,93.60
2018-12-12T10:59:14.581Z,94.27
2018-12-12T11:00:14.773Z,93.51
2018-12-12T11:01:14.858Z,92.94
2018-12-12T11:02:14.994Z,92.94
2018-12-12T11:03:15.184Z,93.08
2018-12-12T11:04:15.303Z,92.18
2018-12-12T11:05:15.490Z,91.33
2018-12-12T11:06:15.731Z,91.19
2018-12-12T11:07:16.024Z,91.28
2018-12-12T11:08:16.000Z,92.23
2018-12-12T11:09:16.221Z,91.80
2018-12-12T11:10:16.406Z,91.99
2018-12-12T11:11:16.451Z,92.94
2018-12-12T11:12:16.649Z,93.32
2018-12-12T11:13:16.763Z,92.28
2018-12-12T11:14:17.057Z,92.47
2018-12-12T11:15:17.162Z,92.85
2018-12-12T11:16:17.289Z,93.04
2018-12-12T11:17:17.537Z,93.04
2018-12-12T11:18:18.518Z,91.89
2018-12-12T11:19:17.842Z,91.52
2018-12-12T11:20:17.975Z,92.09
2018-12-12T11:21:18.139Z,92.56
2018-12-12T11:22:18.281Z,92.66
2018-12-12T11:23:18.559Z,93.51
2018-12-12T11:24:18.565Z,93.99
2018-12-12T11:25:18.714Z,93.80
2018-12-12T11:26:18.923Z,93.32
2018-12-12T11:27:19.021Z,93.13
2018-12-12T11:28:19.234Z,93.13
2018-12-12T11:29:19.413Z,91.99
2018-12-12T11:30:19.590Z,93.13
2018-12-12T11:31:19.787Z,93.04
2018-12-12T11:32:19.915Z,92.75
2018-12-12T11:33:20.105Z,92.56
2018-12-12T11:34:20.189Z,92.09
2018-12-12T11:35:20.356Z,91.89
2018-12-12T11:36:20.600Z,92.18
2018-12-12T11:37:20.722Z,92.09
2018-12-12T11:38:20.892Z,92.18
2018-12-12T11:39:21.022Z,93.32
2018-12-12T11:40:21.233Z,92.37
2018-12-12T11:41:21.290Z,92.71
2018-12-12T11:42:21.542Z,91.66
2018-12-12T11:43:21.676Z,91.28
2018-12-12T11:44:22.394Z,91.09
2018-12-12T11:45:22.012Z,91.28
2018-12-12T11:46:22.185Z,91.28
2018-12-12T11:47:22.328Z,90.71
2018-12-12T11:48:22.461Z,90.71
2018-12-12T11:49:22.631Z,90.80
2018-12-12T11:50:22.801Z,90.14
2018-12-12T11:51:23.080Z,89.57
2018-12-12T11:52:23.133Z,89.09
2018-12-12T11:53:23.315Z,88.53
2018-12-12T11:54:23.520Z,88.57
2018-12-12T11:55:23.571Z,89.00
2018-12-12T11:56:23.825Z,89.28
2018-12-12T11:57:24.020Z,89.00
2018-12-12T11:58:24.132Z,89.19
2018-12-12T11:59:24.276Z,88.90
2018-12-12T12:00:24.468Z,89.28
2018-12-12T12:01:24.669Z,89.76
2018-12-12T12:02:24.774Z,90.71
2018-12-12T12:03:25.000Z,90.38
2018-12-12T12:04:25.087Z,90.66
2018-12-12T12:05:25.260Z,91.14
2018-12-12T12:06:25.434Z,91.24
2018-12-12T12:07:25.671Z,91.24
2018-12-12T12:08:25.840Z,91.52
2018-12-12T12:09:25.895Z,91.71
2018-12-12T12:10:26.053Z,91.52
2018-12-12T12:11:26.243Z,91.52
2018-12-12T12:12:26.463Z,91.42
2018-12-12T12:13:26.590Z,90.28
2018-12-12T12:14:26.723Z,90.09
2018-12-12T12:15:26.931Z,89.81
2018-12-12T12:16:27.027Z,90.57
2018-12-12T12:17:27.337Z,90.95
2018-12-12T12:18:27.466Z,90.76
2018-12-12T12:19:27.589Z,91.14
2018-12-12T12:20:27.761Z,91.33
2018-12-12T12:21:27.879Z,91.24
2018-12-12T12:22:27.986Z,91.42
2018-12-12T12:23:28.171Z,90.85
2018-12-12T12:24:28.382Z,90.66
2018-12-12T12:25:28.570Z,90.95
2018-12-12T12:26:28.722Z,90.95
2018-12-12T12:27:28.859Z,90.85
2018-12-12T12:28:29.030Z,90.85
2018-12-12T12:29:29.179Z,91.04
2018-12-12T12:30:29.331Z,91.14
2018-12-12T12:31:29.480Z,91.42
2018-12-12T12:32:29.694Z,92.18
2018-12-12T12:33:29.814Z,91.99
2018-12-12T12:34:30.087Z,91.61
2018-12-12T12:35:30.154Z,91.24
2018-12-12T12:36:30.342Z,92.37
2018-12-12T12:37:30.369Z,91.99
2018-12-12T12:38:30.565Z,92.94
2018-12-12T12:39:30.773Z,93.04
2018-12-12T12:40:30.841Z,92.94
2018-12-12T12:41:31.083Z,92.94
2018-12-12T12:42:31.280Z,93.13
2018-12-12T12:43:31.381Z,93.13
2018-12-12T12:44:31.542Z,91.42
2018-12-12T12:45:31.719Z,91.52
2018-12-12T12:46:31.844Z,92.18
2018-12-12T12:47:32.030Z,92.56
2018-12-12T12:48:32.224Z,93.04
2018-12-12T12:49:32.332Z,92.56
2018-12-12T12:50:32.543Z,91.71
2018-12-12T12:51:32.734Z,92.42
2018-12-12T12:52:32.779Z,92.94
2018-12-12T12:53:33.096Z,92.85
2018-12-12T12:54:33.152Z,92.23
2018-12-12T12:55:33.318Z,92.80
2018-12-12T12:56:33.464Z,92.99
2018-12-12T12:57:33.637Z,93.65
2018-12-12T12:58:33.774Z,94.23
2018-12-12T12:59:33.912Z,94.51
2018-12-12T13:00:34.097Z,94.32
2018-12-12T13:01:35.867Z,94.51
2018-12-12T13:02:34.829Z,95.27
2018-12-12T13:03:34.535Z,94.32
2018-12-12T13:04:34.801Z,94.32
2018-12-12T13:05:34.936Z,93.75
2018-12-12T13:06:35.132Z,94.23
2018-12-12T13:07:35.276Z,93.56
2018-12-12T13:08:35.402Z,93.37
2018-12-12T13:09:35.652Z,93.37
2018-12-12T13:10:35.839Z,93.75
2018-12-12T13:11:35.980Z,93.65
2018-12-12T13:12:36.190Z,93.08
2018-12-12T13:13:36.499Z,93.08
2018-12-12T13:14:36.510Z,93.75
2018-12-12T13:15:36.684Z,94.42
2018-12-12T13:16:36.979Z,95.17
2018-12-12T13:17:36.969Z,94.42
2018-12-12T13:18:37.181Z,95.36
2018-12-12T13:19:37.389Z,95.55
2018-12-12T13:20:37.486Z,94.98
2018-12-12T13:21:37.692Z,95.07
2018-12-12T13:22:37.795Z,94.70
2018-12-12T13:23:38.036Z,93.94
2018-12-12T13:24:38.164Z,93.56
2018-12-12T13:25:38.457Z,94.23
2018-12-12T13:26:38.472Z,94.70
2018-12-12T13:27:38.767Z,94.03
2018-12-12T13:28:38.782Z,92.61
2018-12-12T13:29:38.912Z,92.80
2018-12-12T13:30:39.037Z,93.75
2018-12-12T13:31:39.314Z,93.37
2018-12-12T13:32:39.524Z,93.65
2018-12-12T13:33:39.597Z,92.56
2018-12-12T13:34:39.729Z,92.23
2018-12-12T13:35:39.899Z,92.42
2018-12-12T13:36:40.094Z,92.04
2018-12-12T13:37:40.248Z,92.14
2018-12-12T13:38:40.709Z,91.47
2018-12-12T13:39:40.669Z,91.33
2018-12-12T13:40:40.791Z,91.33
2018-12-12T13:41:40.934Z,91.52
2018-12-12T13:42:41.046Z,91.33
2018-12-12T13:43:41.226Z,90.66
2018-12-12T13:44:41.349Z,91.04
2018-12-12T13:45:41.557Z,90.99
2018-12-12T13:46:41.702Z,89.28
2018-12-12T13:47:41.866Z,88.71
2018-12-12T13:48:42.033Z,88.81
2018-12-12T13:49:42.793Z,89.76
2018-12-12T13:50:42.391Z,90.47
2018-12-12T13:51:42.503Z,90.66
2018-12-12T13:52:42.628Z,90.28
2018-12-12T13:53:42.847Z,90.76
2018-12-12T13:54:43.002Z,90.47
2018-12-12T13:55:43.124Z,91.14
2018-12-12T13:56:43.310Z,91.14
2018-12-12T13:57:43.522Z,91.24
2018-12-12T13:58:43.701Z,91.33
2018-12-12T13:59:43.891Z,91.71
2018-12-12T14:00:44.060Z,92.09
2018-12-12T14:01:44.179Z,91.52
2018-12-12T14:02:44.450Z,92.18
2018-12-12T14:03:44.731Z,92.28
2018-12-12T14:04:44.771Z,91.42
2018-12-12T14:05:45.103Z,91.61
2018-12-12T14:06:45.276Z,90.95
2018-12-12T14:07:45.632Z,91.47
2018-12-12T14:08:45.475Z,91.19
2018-12-12T14:09:45.581Z,91.94
2018-12-12T14:10:45.801Z,92.42
2018-12-12T14:11:46.331Z,92.23
2018-12-12T14:12:46.083Z,92.33
2018-12-12T14:13:46.333Z,91.56
2018-12-12T14:14:46.587Z,91.38
2018-12-12T14:15:46.602Z,91.56
2018-12-12T14:16:46.835Z,92.33
2018-12-12T14:17:47.236Z,91.28
2018-12-12T14:18:47.263Z,91.19
2018-12-12T14:19:47.438Z,91.47
2018-12-12T14:20:48.116Z,91.94
2018-12-12T14:21:47.734Z,92.14
2018-12-12T14:22:47.875Z,91.38
2018-12-12T14:23:48.030Z,91.47
2018-12-12T14:24:48.354Z,91.94
2018-12-12T14:25:48.486Z,91.00
2018-12-12T14:26:48.851Z,91.47
2018-12-12T14:27:48.955Z,91.00
2018-12-12T14:28:49.232Z,91.47
2018-12-12T14:29:49.501Z,92.23
2018-12-12T14:30:49.768Z,92.71
2018-12-12T14:31:49.941Z,92.33
2018-12-12T14:32:50.308Z,91.47
2018-12-12T14:33:50.280Z,92.14
2018-12-12T14:34:50.918Z,92.52
2018-12-12T14:35:50.330Z,92.90
2018-12-12T14:36:50.653Z,91.94
2018-12-12T14:37:51.018Z,92.23
2018-12-12T14:38:50.905Z,92.14
2018-12-12T14:39:51.219Z,91.19
2018-12-12T14:40:51.335Z,91.75
2018-12-12T14:41:51.561Z,91.47
2018-12-12T14:42:52.092Z,92.14
2018-12-12T14:43:52.451Z,92.42
2018-12-12T14:44:52.303Z,92.14
2018-12-12T14:45:52.455Z,92.33
2018-12-12T14:46:52.563Z,92.61
2018-12-12T14:47:52.570Z,92.23
2018-12-12T14:48:52.616Z,93.18
2018-12-12T14:49:53.357Z,92.71
2018-12-12T14:50:53.438Z,93.18
2018-12-12T14:51:53.394Z,92.90
2018-12-12T14:52:55.537Z,92.90
2018-12-12T14:53:53.796Z,93.75
2018-12-12T14:54:53.901Z,94.42
2018-12-12T14:55:54.153Z,94.08
2018-12-12T14:56:54.170Z,93.27
2018-12-12T14:57:54.342Z,92.85
2018-12-12T14:58:54.403Z,92.28
2018-12-12T14:59:54.698Z,92.94
2018-12-12T15:00:54.990Z,92.76
2018-12-12T15:01:55.093Z,93.23
2018-12-12T15:02:55.036Z,92.66
2018-12-12T15:03:55.203Z,93.04
2018-12-12T15:04:55.595Z,93.61
2018-12-12T15:05:55.456Z,93.89
2018-12-12T15:06:55.650Z,94.27
2018-12-12T15:07:55.836Z,94.37
2018-12-12T15:08:55.927Z,94.18
2018-12-12T15:09:56.284Z,94.27
2018-12-12T15:10:56.351Z,93.51
2018-12-12T15:11:56.477Z,93.51
2018-12-12T15:12:57.574Z,94.27
2018-12-12T15:13:57.010Z,94.27
2018-12-12T15:14:57.016Z,94.18
2018-12-12T15:15:57.273Z,94.56
2018-12-12T15:16:57.429Z,95.12
2018-12-12T15:17:57.571Z,95.03
2018-12-12T15:18:57.725Z,95.12
2018-12-12T15:19:57.890Z,94.93
2018-12-12T15:20:58.019Z,94.93
2018-12-12T15:21:58.251Z,95.41
2018-12-12T15:22:58.383Z,95.41
2018-12-12T15:23:58.638Z,95.50
2018-12-12T15:24:58.791Z,95.60
2018-12-12T15:25:58.911Z,95.74
2018-12-12T15:26:59.085Z,95.55
2018-12-12T15:27:59.311Z,96.26
2018-12-12T15:28:59.448Z,95.84
2018-12-12T15:29:59.706Z,95.65
2018-12-12T15:30:59.853Z,95.26
2018-12-12T15:31:59.977Z,95.36
2018-12-12T15:33:00.266Z,95.45
2018-12-12T15:34:00.324Z,96.31
2018-12-12T15:35:00.642Z,95.84
2018-12-12T15:36:00.674Z,95.93
2018-12-12T15:37:01.422Z,96.78
2018-12-12T15:38:01.471Z,96.41
2018-12-12T15:39:01.695Z,96.22
2018-12-12T15:40:01.810Z,96.22
2018-12-12T15:41:01.739Z,96.88
2018-12-12T15:42:01.933Z,97.45
2018-12-12T15:43:02.138Z,97.07
2018-12-12T15:44:02.216Z,96.97
2018-12-12T15:45:02.424Z,97.26
2018-12-12T15:46:02.556Z,97.26
2018-12-12T15:47:03.064Z,97.35
2018-12-12T15:48:06.031Z,97.78
2018-12-12T15:51:37.209Z,97.30
2018-12-12T15:52:07.944Z,97.30
2018-12-12T15:53:03.357Z,97.11
2018-12-12T15:54:03.486Z,97.35
2018-12-12T15:55:06.613Z,97.73
2018-12-12T15:56:03.638Z,97.54
2018-12-12T15:57:03.913Z,98.21
2018-12-12T15:58:04.248Z,97.87
2018-12-12T15:59:05.471Z,97.64
2018-12-12T16:01:07.184Z,97.11
2018-12-12T16:02:05.706Z,97.40
2018-12-12T16:03:05.980Z,97.30
2018-12-12T16:04:08.954Z,97.97
2018-12-12T16:05:05.357Z,97.97
2018-12-12T16:07:07.688Z,97.68
2018-12-12T16:08:08.643Z,97.97
2018-12-12T16:09:15.329Z,98.25
2018-12-12T16:10:06.993Z,97.78
2018-12-12T16:11:09.547Z,97.97
2018-12-12T16:12:06.546Z,98.16
2018-12-12T16:13:06.814Z,98.44
2018-12-12T16:14:07.335Z,97.59
2018-12-12T16:15:06.979Z,97.59
2018-12-12T16:16:07.232Z,97.68
2018-12-12T16:17:15.786Z,98.06
2018-12-12T16:18:07.518Z,99.10
2018-12-12T16:19:10.091Z,99.39
2018-12-12T16:20:08.564Z,99.77
2018-12-12T16:21:08.643Z,99.48
2018-12-12T16:22:08.444Z,98.91
2018-12-12T16:23:08.908Z,99.39
2018-12-12T16:24:08.110Z,98.72
2018-12-12T16:25:08.939Z,98.35
2018-12-12T16:26:08.413Z,98.16
2018-12-12T16:27:18.870Z,97.97
2018-12-12T16:28:19.198Z,98.16
2018-12-12T16:30:45.367Z,98.63
2018-12-12T16:35:30.162Z,99.29
2018-12-12T16:36:30.867Z,99.48
2018-12-12T16:37:29.942Z,98.91
2018-12-12T16:38:30.928Z,99.29
2018-12-12T16:39:31.407Z,99.58
2018-12-12T16:40:31.549Z,99.77
2018-12-12T16:41:30.062Z,99.99
2018-12-12T16:42:29.570Z,99.29
2018-12-12T16:43:29.662Z,99.63
2018-12-12T16:44:29.738Z,99.20
2018-12-12T16:45:31.279Z,99.01
2018-12-12T16:46:31.042Z,99.15
2018-12-12T16:47:30.980Z,99.34
2018-12-12T16:48:33.349Z,98.96
2018-12-12T16:49:30.509Z,99.15
2018-12-12T16:50:30.683Z,99.15
2018-12-12T16:53:34.549Z,99.25
2018-12-12T16:54:34.642Z,99.20
2018-12-12T16:55:34.895Z,99.34
2018-12-12T16:56:34.613Z,99.99
2018-12-12T16:57:33.156Z,99.99
2018-12-12T16:58:33.019Z,99.53
2018-12-12T16:59:33.154Z,99.63
2018-12-12T17:00:33.339Z,99.99
2018-12-12T17:01:33.476Z,99.99
2018-12-12T17:02:33.665Z,99.72
2018-12-12T17:03:33.737Z,99.72
2018-12-12T17:04:33.938Z,99.82
2018-12-12T17:05:34.186Z,99.53
2018-12-12T17:06:34.232Z,99.15